createdAt,value
2024-03-09T00:00:59.303Z,2.72
2024-03-09T00:01:59.454Z,2.70
2024-03-09T00:02:59.450Z,2.76
2024-03-09T00:03:59.535Z,2.71
2024-03-09T00:04:59.633Z,2.71
2024-03-09T00:05:59.676Z,2.73
2024-03-09T00:06:59.810Z,2.74
2024-03-09T00:08:59.929Z,2.71
2024-03-09T00:09:59.999Z,2.70
2024-03-09T00:11:00.173Z,2.71
2024-03-09T00:12:00.207Z,2.78
2024-03-09T00:13:00.242Z,2.73
2024-03-09T00:14:00.373Z,2.74
2024-03-09T00:15:00.417Z,2.70
2024-03-09T00:16:00.500Z,2.69
2024-03-09T00:17:00.675Z,2.69
2024-03-09T00:18:00.721Z,2.69
2024-03-09T00:19:00.744Z,2.77
2024-03-09T00:20:00.896Z,2.74
2024-03-09T00:21:00.882Z,2.79
2024-03-09T00:22:00.967Z,2.72
2024-03-09T00:23:02.669Z,2.69
2024-03-09T00:24:01.081Z,2.72
2024-03-09T00:25:01.085Z,2.67
2024-03-09T00:26:01.131Z,2.67
2024-03-09T00:27:01.130Z,2.57
2024-03-09T00:28:01.158Z,2.62
2024-03-09T00:29:01.173Z,2.68
2024-03-09T00:30:01.161Z,2.69
2024-03-09T00:31:01.195Z,2.64
2024-03-09T00:32:01.218Z,2.68
2024-03-09T00:33:01.381Z,2.64
2024-03-09T00:34:01.237Z,2.67
2024-03-09T00:35:01.348Z,2.66
2024-03-09T00:36:01.244Z,2.71
2024-03-09T00:37:01.248Z,2.64
2024-03-09T00:38:01.579Z,2.68
2024-03-09T00:39:01.312Z,2.60
2024-03-09T00:40:01.308Z,2.66
2024-03-09T00:41:01.406Z,2.68
2024-03-09T00:42:01.369Z,2.55
2024-03-09T00:43:01.365Z,2.62
2024-03-09T00:44:01.439Z,2.68
2024-03-09T00:45:01.461Z,2.60
2024-03-09T00:46:01.419Z,2.54
2024-03-09T00:47:01.655Z,2.60
2024-03-09T00:48:01.584Z,2.63
2024-03-09T00:49:01.472Z,2.57
2024-03-09T00:50:01.563Z,2.59
2024-03-09T00:51:01.481Z,2.59
2024-03-09T00:52:01.468Z,2.58
2024-03-09T00:53:01.532Z,2.60
2024-03-09T00:54:01.473Z,2.62
2024-03-09T00:55:01.519Z,2.52
2024-03-09T00:56:01.576Z,2.51
2024-03-09T00:57:01.582Z,2.54
2024-03-09T00:58:01.536Z,2.56
2024-03-09T00:59:03.283Z,2.54
2024-03-09T01:00:01.539Z,2.59
2024-03-09T01:01:01.605Z,2.56
2024-03-09T01:02:01.712Z,2.54
2024-03-09T01:03:01.580Z,2.58
2024-03-09T01:04:01.557Z,2.49
2024-03-09T01:05:01.815Z,2.45
2024-03-09T01:06:01.569Z,2.43
2024-03-09T01:07:01.591Z,2.46
2024-03-09T01:08:01.618Z,2.50
2024-03-09T01:09:01.613Z,2.52
2024-03-09T01:10:01.676Z,2.47
2024-03-09T01:11:01.894Z,2.43
2024-03-09T01:12:01.822Z,2.48
2024-03-09T01:13:01.779Z,2.54
2024-03-09T01:14:01.945Z,2.45
2024-03-09T01:15:01.902Z,2.47
2024-03-09T01:16:01.977Z,2.47
2024-03-09T01:17:02.071Z,2.49
2024-03-09T01:18:02.206Z,2.47
2024-03-09T01:19:02.230Z,2.46
2024-03-09T01:20:02.496Z,2.47
2024-03-09T01:21:02.415Z,2.43
2024-03-09T01:22:02.520Z,2.46
2024-03-09T01:23:02.669Z,2.57
2024-03-09T01:24:02.699Z,2.47
2024-03-09T01:25:02.749Z,2.44
2024-03-09T01:26:02.886Z,2.46
2024-03-09T01:27:02.926Z,2.46
2024-03-09T01:28:03.011Z,2.47
2024-03-09T01:29:03.165Z,2.45
2024-03-09T01:30:03.374Z,2.49
2024-03-09T01:31:03.248Z,2.44
2024-03-09T01:32:03.495Z,2.44
2024-03-09T01:33:03.496Z,2.42
2024-03-09T01:34:03.557Z,2.47
2024-03-09T01:35:04.014Z,2.43
2024-03-09T01:36:03.716Z,2.43
2024-03-09T01:37:03.775Z,2.46
2024-03-09T01:38:03.888Z,2.44
2024-03-09T01:39:03.922Z,2.44
2024-03-09T01:40:04.005Z,2.42
2024-03-09T01:41:04.199Z,2.49
2024-03-09T01:42:04.181Z,2.37
2024-03-09T01:43:04.290Z,2.43
2024-03-09T01:44:04.483Z,2.44
2024-03-09T01:45:04.453Z,2.39
2024-03-09T01:46:04.555Z,2.44
2024-03-09T01:47:04.686Z,2.43
2024-03-09T01:48:04.749Z,2.43
2024-03-09T01:49:04.804Z,2.38
2024-03-09T01:50:05.046Z,2.45
2024-03-09T01:51:04.952Z,2.39
2024-03-09T01:52:05.113Z,2.34
2024-03-09T01:53:05.196Z,2.42
2024-03-09T01:54:05.244Z,2.43
2024-03-09T01:55:05.460Z,2.39
2024-03-09T01:56:05.451Z,2.44
2024-03-09T01:57:05.476Z,2.42
2024-03-09T01:58:05.562Z,2.44
2024-03-09T01:59:05.653Z,2.36
2024-03-09T02:00:05.735Z,2.42
2024-03-09T02:01:05.890Z,2.37
2024-03-09T02:02:05.962Z,2.40
2024-03-09T02:03:06.015Z,2.42
2024-03-09T02:04:06.092Z,2.42
2024-03-09T02:05:06.236Z,2.40
2024-03-09T02:06:06.235Z,2.39
2024-03-09T02:07:06.349Z,2.44
2024-03-09T02:08:06.495Z,2.39
2024-03-09T02:09:06.509Z,2.41
2024-03-09T02:10:06.624Z,2.34
2024-03-09T02:11:06.900Z,2.36
2024-03-09T02:12:06.823Z,2.36
2024-03-09T02:13:06.894Z,2.33
2024-03-09T02:14:07.026Z,2.40
2024-03-09T02:15:07.101Z,2.34
2024-03-09T02:16:07.215Z,2.32
2024-03-09T02:17:07.388Z,2.32
2024-03-09T02:18:07.389Z,2.28
2024-03-09T02:19:07.418Z,2.30
2024-03-09T02:20:07.577Z,2.28
2024-03-09T02:21:07.602Z,2.29
2024-03-09T02:22:07.700Z,2.26
2024-03-09T02:23:07.849Z,2.27
2024-03-09T02:24:07.907Z,2.24
2024-03-09T02:25:07.942Z,2.25
2024-03-09T02:26:08.135Z,2.23
2024-03-09T02:27:08.131Z,2.30
2024-03-09T02:28:08.198Z,2.23
2024-03-09T02:29:08.347Z,2.16
2024-03-09T02:30:08.391Z,2.23
2024-03-09T02:31:08.468Z,2.21
2024-03-09T02:32:09.040Z,2.21
2024-03-09T02:33:08.656Z,2.17
2024-03-09T02:34:08.749Z,2.23
2024-03-09T02:35:08.854Z,2.21
2024-03-09T02:36:08.885Z,2.19
2024-03-09T02:37:08.942Z,2.22
2024-03-09T02:38:09.082Z,2.19
2024-03-09T02:39:09.152Z,2.16
2024-03-09T02:40:09.245Z,2.18
2024-03-09T02:41:09.394Z,2.15
2024-03-09T02:42:09.411Z,2.15
2024-03-09T02:43:09.579Z,2.15
2024-03-09T02:44:09.644Z,2.12
2024-03-09T02:45:09.725Z,2.12
2024-03-09T02:46:09.785Z,2.10
2024-03-09T02:47:09.942Z,2.09
2024-03-09T02:48:09.978Z,2.07
2024-03-09T02:49:10.060Z,2.02
2024-03-09T02:50:10.252Z,2.08
2024-03-09T02:51:10.248Z,2.04
2024-03-09T02:52:10.632Z,2.08
2024-03-09T02:53:10.511Z,2.10
2024-03-09T02:54:10.509Z,2.06
2024-03-09T02:55:10.614Z,2.01
2024-03-09T02:56:10.752Z,2.06
2024-03-09T02:57:10.778Z,2.06
2024-03-09T02:58:10.866Z,2.04
2024-03-09T02:59:11.210Z,2.06
2024-03-09T03:00:11.150Z,2.06
2024-03-09T03:01:11.172Z,2.00
2024-03-09T03:02:11.244Z,2.01
2024-03-09T03:03:11.354Z,2.05
2024-03-09T03:04:11.430Z,2.04
2024-03-09T03:05:11.585Z,2.02
2024-03-09T03:06:11.627Z,2.07
2024-03-09T03:07:11.725Z,1.97
2024-03-09T03:08:11.846Z,2.03
2024-03-09T03:09:11.909Z,1.98
2024-03-09T03:10:11.978Z,1.98
2024-03-09T03:11:12.164Z,1.99
2024-03-09T03:12:12.141Z,1.97
2024-03-09T03:13:12.264Z,1.98
2024-03-09T03:14:12.848Z,1.98
2024-03-09T03:15:12.444Z,1.96
2024-03-09T03:16:12.536Z,1.92
2024-03-09T03:17:12.681Z,1.99
2024-03-09T03:18:12.787Z,1.95
2024-03-09T03:19:12.828Z,1.89
2024-03-09T03:20:12.961Z,1.92
2024-03-09T03:21:13.011Z,1.96
2024-03-09T03:22:13.115Z,1.92
2024-03-09T03:23:13.235Z,1.96
2024-03-09T03:24:13.284Z,1.91
2024-03-09T03:25:13.377Z,1.91
2024-03-09T03:26:13.523Z,1.93
2024-03-09T03:27:13.596Z,1.97
2024-03-09T03:28:13.646Z,1.93
2024-03-09T03:29:13.824Z,1.92
2024-03-09T03:30:13.834Z,1.94
2024-03-09T03:31:13.907Z,1.92
2024-03-09T03:32:14.085Z,1.87
2024-03-09T03:33:14.105Z,1.91
2024-03-09T03:34:14.181Z,1.90
2024-03-09T03:35:14.518Z,1.88
2024-03-09T03:36:14.407Z,1.93
2024-03-09T03:37:14.486Z,1.90
2024-03-09T03:38:14.623Z,1.87
2024-03-09T03:39:15.079Z,1.90
2024-03-09T03:40:14.769Z,1.89
2024-03-09T03:41:14.905Z,1.90
2024-03-09T03:42:14.944Z,1.89
2024-03-09T03:43:15.049Z,1.93
2024-03-09T03:44:15.168Z,1.89
2024-03-09T03:45:15.256Z,1.87
2024-03-09T03:46:15.429Z,1.92
2024-03-09T03:47:15.497Z,1.89
2024-03-09T03:48:15.596Z,1.86
2024-03-09T03:49:15.610Z,1.90
2024-03-09T03:50:15.738Z,1.88
2024-03-09T03:51:15.903Z,1.89
2024-03-09T03:52:15.918Z,1.91
2024-03-09T03:53:16.134Z,1.91
2024-03-09T03:54:16.101Z,1.89
2024-03-09T03:55:16.206Z,1.90
2024-03-09T03:56:16.326Z,1.92
2024-03-09T03:57:16.368Z,1.88
2024-03-09T03:58:16.505Z,1.90
2024-03-09T03:59:16.593Z,1.89
2024-03-09T04:00:16.660Z,1.90
2024-03-09T04:01:16.846Z,1.91
2024-03-09T04:02:16.916Z,1.90
2024-03-09T04:03:17.004Z,1.87
2024-03-09T04:04:17.040Z,1.91
2024-03-09T04:05:17.197Z,1.92
2024-03-09T04:06:17.244Z,1.89
2024-03-09T04:07:17.354Z,1.91
2024-03-09T04:08:17.438Z,1.84
2024-03-09T04:09:17.549Z,1.88
2024-03-09T04:10:17.661Z,1.89
2024-03-09T04:11:17.849Z,1.86
2024-03-09T04:12:17.907Z,1.86
2024-03-09T04:13:17.955Z,1.90
2024-03-09T04:14:18.086Z,1.87
2024-03-09T04:15:18.205Z,1.88
2024-03-09T04:16:18.205Z,1.92
2024-03-09T04:17:18.309Z,1.88
2024-03-09T04:18:18.437Z,1.90
2024-03-09T04:19:18.490Z,1.90
2024-03-09T04:20:25.686Z,0.50
2024-03-09T04:21:25.677Z,0.50
2024-03-09T04:22:25.765Z,0.50
2024-03-09T04:23:25.681Z,0.50
2024-03-09T04:24:25.649Z,0.50
2024-03-09T04:25:25.662Z,0.51
2024-03-09T04:26:25.656Z,0.51
2024-03-09T04:27:25.649Z,0.53
2024-03-09T04:28:25.656Z,0.52
2024-03-09T04:29:25.679Z,0.52
2024-03-09T04:30:25.669Z,0.52
2024-03-09T04:31:32.890Z,0.50
2024-03-09T04:32:32.878Z,0.50
2024-03-09T04:33:32.872Z,0.50
2024-03-09T04:34:32.907Z,0.50
2024-03-09T04:35:32.899Z,0.50
2024-03-09T04:36:32.883Z,0.51
2024-03-09T04:37:32.936Z,0.51
2024-03-09T04:38:32.948Z,0.50
2024-03-09T04:39:33.024Z,0.51
2024-03-09T04:40:32.963Z,0.50
2024-03-09T04:41:32.972Z,0.51
2024-03-09T04:42:32.989Z,0.51
2024-03-09T04:43:33.034Z,0.51
2024-03-09T04:44:32.990Z,0.51
2024-03-09T04:45:33.034Z,0.51
2024-03-09T04:46:33.008Z,0.51
2024-03-09T04:47:33.082Z,0.51
2024-03-09T04:48:33.063Z,0.51
2024-03-09T04:49:33.098Z,0.51
2024-03-09T04:50:33.083Z,0.51
2024-03-09T04:51:33.092Z,0.50
2024-03-09T04:52:33.151Z,0.52
2024-03-09T04:53:33.212Z,0.51
2024-03-09T04:54:33.103Z,0.51
2024-03-09T04:55:33.124Z,0.50
2024-03-09T04:56:33.112Z,0.51
2024-03-09T04:57:33.122Z,0.51
2024-03-09T04:58:33.182Z,0.52
2024-03-09T04:59:33.167Z,0.51
2024-03-09T05:00:33.196Z,0.51
2024-03-09T05:01:33.219Z,0.51
2024-03-09T05:02:33.214Z,0.52
2024-03-09T05:03:33.217Z,0.50
2024-03-09T05:04:33.271Z,0.51
2024-03-09T05:05:33.234Z,0.52
2024-03-09T05:06:33.214Z,0.51
2024-03-09T05:07:33.350Z,0.52
2024-03-09T05:08:33.358Z,0.53
2024-03-09T05:09:33.442Z,0.52
2024-03-09T05:10:33.638Z,0.53
2024-03-09T05:11:33.697Z,0.51
2024-03-09T05:12:33.702Z,0.53
2024-03-09T05:13:33.822Z,0.53
2024-03-09T05:14:33.905Z,0.52
2024-03-09T05:15:34.553Z,0.52
2024-03-09T05:16:34.666Z,0.51
2024-03-09T05:17:34.154Z,0.53
2024-03-09T05:18:34.333Z,0.53
2024-03-09T05:19:34.333Z,0.53
2024-03-09T05:20:34.375Z,0.53
2024-03-09T05:21:34.485Z,0.52
2024-03-09T05:22:34.619Z,0.53
2024-03-09T05:23:34.648Z,0.53
2024-03-09T05:24:34.739Z,0.53
2024-03-09T05:25:34.836Z,0.53
2024-03-09T05:26:34.920Z,0.53
2024-03-09T05:27:35.024Z,0.53
2024-03-09T05:28:35.111Z,0.52
2024-03-09T05:29:35.156Z,0.52
2024-03-09T05:31:29.918Z,0.50
2024-03-09T05:32:29.879Z,0.50
2024-03-09T05:33:29.821Z,0.50
2024-03-09T05:34:29.872Z,0.50
2024-03-09T05:35:30.019Z,0.50
2024-03-09T05:36:29.851Z,0.50
2024-03-09T05:37:29.866Z,0.51
2024-03-09T05:38:29.856Z,0.51
2024-03-09T05:39:29.876Z,0.51
2024-03-09T05:40:29.908Z,0.50
2024-03-09T05:41:29.944Z,0.52
2024-03-09T05:42:29.910Z,0.51
2024-03-09T05:43:29.990Z,0.51
2024-03-09T05:44:29.934Z,0.52
2024-03-09T05:45:29.922Z,0.51
2024-03-09T05:46:32.807Z,0.51
2024-03-09T05:47:29.977Z,0.51
2024-03-09T05:48:29.967Z,0.51
2024-03-09T05:49:30.052Z,0.51
2024-03-09T05:50:30.172Z,0.51
2024-03-09T05:51:30.023Z,0.50
2024-03-09T05:52:30.041Z,0.50
2024-03-09T05:53:30.038Z,0.51
2024-03-09T05:54:30.037Z,0.52
2024-03-09T05:55:30.223Z,0.52
2024-03-09T05:56:30.060Z,0.50
2024-03-09T05:57:30.034Z,0.51
2024-03-09T05:58:30.088Z,0.51
2024-03-09T05:59:30.066Z,0.52
2024-03-09T06:00:31.208Z,0.51
2024-03-09T06:01:30.180Z,0.52
2024-03-09T06:02:30.107Z,0.51
2024-03-09T06:03:30.115Z,0.51
2024-03-09T06:04:30.158Z,0.51
2024-03-09T06:05:31.261Z,0.51
2024-03-09T06:06:30.136Z,0.50
2024-03-09T06:07:30.208Z,0.51
2024-03-09T06:08:30.169Z,0.51
2024-03-09T06:09:30.150Z,0.51
2024-03-09T06:10:30.354Z,0.51
2024-03-09T06:11:30.271Z,0.52
2024-03-09T06:12:30.281Z,0.52
2024-03-09T06:13:30.236Z,0.52
2024-03-09T06:14:30.201Z,0.51
2024-03-09T06:15:30.231Z,0.52
2024-03-09T06:16:30.205Z,0.52
2024-03-09T06:17:30.231Z,0.51
2024-03-09T06:18:30.227Z,0.53
2024-03-09T06:19:30.296Z,0.52
2024-03-09T06:20:30.782Z,0.51
2024-03-09T06:21:30.369Z,0.51
2024-03-09T06:22:30.438Z,0.51
2024-03-09T06:23:30.441Z,0.52
2024-03-09T06:24:30.480Z,0.51
2024-03-09T06:25:30.895Z,0.51
2024-03-09T06:26:30.598Z,0.51
2024-03-09T06:27:30.732Z,0.53
2024-03-09T06:28:30.834Z,0.51
2024-03-09T06:29:30.937Z,0.51
2024-03-09T06:30:32.565Z,0.52
2024-03-09T06:31:31.086Z,0.51
2024-03-09T06:32:31.097Z,0.52
2024-03-09T06:33:31.198Z,0.52
2024-03-09T06:34:31.328Z,0.51
2024-03-09T06:35:31.428Z,0.52
2024-03-09T06:36:31.541Z,0.52
2024-03-09T06:37:31.568Z,0.52
2024-03-09T06:38:31.644Z,0.52
2024-03-09T06:39:31.737Z,0.51
2024-03-09T06:40:31.893Z,0.52
2024-03-09T06:41:31.951Z,0.51
2024-03-09T06:42:32.011Z,0.52
2024-03-09T06:43:32.116Z,0.51
2024-03-09T06:44:32.148Z,0.52
2024-03-09T06:45:32.238Z,0.53
2024-03-09T06:46:32.384Z,0.52
2024-03-09T06:47:32.499Z,0.52
2024-03-09T06:48:32.534Z,0.52
2024-03-09T06:49:32.660Z,0.51
2024-03-09T06:50:32.833Z,0.52
2024-03-09T06:51:32.834Z,0.52
2024-03-09T06:52:32.924Z,0.52
2024-03-09T06:53:33.027Z,0.51
2024-03-09T06:54:33.104Z,0.51
2024-03-09T06:55:33.520Z,0.53
2024-03-09T06:56:33.278Z,0.51
2024-03-09T06:57:33.387Z,0.52
2024-03-09T06:58:33.522Z,0.52
2024-03-09T06:59:33.566Z,0.51
2024-03-09T07:00:33.633Z,0.51
2024-03-09T07:01:33.768Z,0.51
2024-03-09T07:02:33.803Z,0.51
2024-03-09T07:03:33.884Z,0.51
2024-03-09T07:04:34.023Z,0.53
2024-03-09T07:05:34.103Z,0.51
2024-03-09T07:06:34.226Z,0.52
2024-03-09T07:07:34.288Z,0.52
2024-03-09T07:08:34.417Z,0.53
2024-03-09T07:09:34.458Z,0.53
2024-03-09T07:10:34.611Z,0.53
2024-03-09T07:11:34.613Z,0.53
2024-03-09T07:12:34.774Z,0.51
2024-03-09T07:13:34.810Z,0.52
2024-03-09T07:14:34.848Z,0.52
2024-03-09T07:15:34.946Z,0.53
2024-03-09T07:16:35.070Z,0.53
2024-03-09T07:17:35.104Z,0.53
2024-03-09T07:18:35.205Z,0.53
2024-03-09T07:19:35.321Z,0.52
2024-03-09T07:20:35.454Z,0.52
2024-03-09T07:21:35.549Z,0.52
2024-03-09T07:22:35.615Z,0.52
2024-03-09T07:23:35.610Z,0.54
2024-03-09T07:24:35.702Z,0.54
2024-03-09T07:25:35.827Z,0.53
2024-03-09T07:26:35.868Z,0.55
2024-03-09T07:27:35.960Z,0.54
2024-03-09T07:28:36.076Z,0.54
2024-03-09T07:29:36.126Z,0.54
2024-03-09T07:30:36.188Z,0.55
2024-03-09T07:31:36.302Z,0.54
2024-03-09T07:32:36.387Z,0.55
2024-03-09T07:33:36.446Z,0.54
2024-03-09T07:34:36.554Z,0.55
2024-03-09T07:35:36.610Z,0.55
2024-03-09T07:36:36.692Z,0.51
2024-03-09T07:37:36.827Z,0.50
2024-03-09T07:38:36.865Z,0.52
2024-03-09T07:39:37.037Z,0.50
2024-03-09T07:40:37.064Z,0.52
2024-03-09T07:41:37.108Z,0.52
2024-03-09T07:42:37.195Z,0.54
2024-03-09T07:43:37.941Z,0.58
2024-03-09T07:44:37.224Z,0.60
2024-03-09T07:45:37.369Z,0.64
2024-03-09T07:46:37.217Z,0.67
2024-03-09T07:47:37.252Z,0.72
2024-03-09T07:48:37.217Z,0.76
2024-03-09T07:49:37.234Z,0.82
2024-03-09T07:50:37.220Z,0.90
2024-03-09T07:51:37.189Z,1.00
2024-03-09T07:52:37.244Z,1.06
2024-03-09T07:53:37.238Z,1.11
2024-03-09T07:54:37.348Z,1.12
2024-03-09T07:55:37.470Z,1.06
2024-03-09T07:56:37.468Z,1.04
2024-03-09T07:57:37.464Z,0.99
2024-03-09T07:58:37.670Z,0.96
2024-03-09T07:59:37.627Z,0.91
2024-03-09T08:00:37.724Z,0.85
2024-03-09T08:01:37.859Z,0.83
2024-03-09T08:02:37.874Z,0.83
2024-03-09T08:03:37.933Z,0.84
2024-03-09T08:04:38.001Z,0.86
2024-03-09T08:05:38.059Z,0.87
2024-03-09T08:06:38.166Z,0.87
2024-03-09T08:07:38.260Z,0.91
2024-03-09T08:08:38.312Z,0.92
2024-03-09T08:09:38.400Z,0.92
2024-03-09T08:10:38.584Z,0.90
2024-03-09T08:11:38.669Z,0.89
2024-03-09T08:12:38.761Z,0.87
2024-03-09T08:13:38.866Z,0.88
2024-03-09T08:14:38.952Z,0.86
2024-03-09T08:15:39.024Z,0.86
2024-03-09T08:16:39.254Z,0.84
2024-03-09T08:17:39.309Z,0.85
2024-03-09T08:18:39.414Z,0.85
2024-03-09T08:19:39.496Z,0.82
2024-03-09T08:20:39.709Z,0.83
2024-03-09T08:21:39.725Z,0.83
2024-03-09T08:22:39.814Z,0.81
2024-03-09T08:23:39.861Z,0.79
2024-03-09T08:24:39.984Z,0.77
2024-03-09T08:25:40.184Z,0.77
2024-03-09T08:26:40.144Z,0.75
2024-03-09T08:27:40.254Z,0.75
2024-03-09T08:28:40.373Z,0.73
2024-03-09T08:29:40.399Z,0.71
2024-03-09T08:30:40.525Z,0.71
2024-03-09T08:31:40.606Z,0.71
2024-03-09T08:32:40.979Z,0.70
2024-03-09T08:33:40.758Z,0.69
2024-03-09T08:34:41.089Z,0.68
2024-03-09T08:35:40.980Z,0.68
2024-03-09T08:36:41.042Z,0.67
2024-03-09T08:37:41.160Z,0.67
2024-03-09T08:38:41.257Z,0.65
2024-03-09T08:39:43.655Z,0.67
2024-03-09T08:40:41.575Z,0.65
2024-03-09T08:41:41.518Z,0.64
2024-03-09T08:42:41.583Z,0.66
2024-03-09T08:43:41.631Z,0.64
2024-03-09T08:44:41.654Z,0.64
2024-03-09T08:45:41.706Z,0.63
2024-03-09T08:46:41.767Z,0.61
2024-03-09T08:47:41.779Z,0.63
2024-03-09T08:48:41.790Z,0.63
2024-03-09T08:49:41.856Z,0.62
2024-03-09T08:50:41.925Z,0.62
2024-03-09T08:51:41.924Z,0.61
2024-03-09T08:52:42.069Z,0.62
2024-03-09T08:53:42.102Z,0.61
2024-03-09T08:54:42.207Z,0.62
2024-03-09T08:55:42.381Z,0.62
2024-03-09T08:56:42.435Z,0.62
2024-03-09T08:57:42.532Z,0.60
2024-03-09T08:58:42.764Z,0.61
2024-03-09T08:59:42.790Z,0.61
2024-03-09T09:00:42.929Z,0.61
2024-03-09T09:01:42.966Z,0.61
2024-03-09T09:02:43.048Z,0.60
2024-03-09T09:03:43.160Z,0.61
2024-03-09T09:04:43.301Z,0.60
2024-03-09T09:05:43.412Z,0.62
2024-03-09T09:06:43.524Z,0.62
2024-03-09T09:07:43.642Z,0.60
2024-03-09T09:08:43.772Z,0.60
2024-03-09T09:09:43.814Z,0.60
2024-03-09T09:10:44.022Z,0.60
2024-03-09T09:11:44.116Z,0.62
2024-03-09T09:12:44.165Z,0.61
2024-03-09T09:13:44.281Z,0.61
2024-03-09T09:14:44.367Z,0.62
2024-03-09T09:15:44.464Z,0.61
2024-03-09T09:16:44.568Z,0.61
2024-03-09T09:17:44.688Z,0.60
2024-03-09T09:18:44.734Z,0.60
2024-03-09T09:19:44.845Z,0.60
2024-03-09T09:20:44.906Z,0.60
2024-03-09T09:21:45.030Z,0.61
2024-03-09T09:22:45.252Z,0.62
2024-03-09T09:23:45.203Z,0.61
2024-03-09T09:24:45.293Z,0.62
2024-03-09T09:25:45.428Z,0.62
2024-03-09T09:26:45.470Z,0.62
2024-03-09T09:27:45.732Z,0.61
2024-03-09T09:28:45.621Z,0.61
2024-03-09T09:29:45.687Z,0.61
2024-03-09T09:30:45.781Z,0.61
2024-03-09T09:31:45.877Z,0.62
2024-03-09T09:32:45.964Z,0.61
2024-03-09T09:33:46.010Z,0.62
2024-03-09T09:34:46.162Z,0.62
2024-03-09T09:35:46.162Z,0.62
2024-03-09T09:36:46.270Z,0.61
2024-03-09T09:37:46.339Z,0.61
2024-03-09T09:38:46.372Z,0.62
2024-03-09T09:39:46.459Z,0.62
2024-03-09T09:40:46.520Z,0.61
2024-03-09T09:41:46.597Z,0.62
2024-03-09T09:42:46.628Z,0.61
2024-03-09T09:43:46.791Z,0.62
2024-03-09T09:44:46.808Z,0.62
2024-03-09T09:45:46.934Z,0.61
2024-03-09T09:46:47.000Z,0.63
2024-03-09T09:47:47.049Z,0.61
2024-03-09T09:48:47.078Z,0.61
2024-03-09T09:49:47.149Z,0.62
2024-03-09T09:50:47.198Z,0.60
2024-03-09T09:51:49.134Z,0.60
2024-03-09T09:52:47.340Z,0.60
2024-03-09T09:53:47.323Z,0.60
2024-03-09T09:54:47.317Z,0.61
2024-03-09T09:55:47.349Z,0.60
2024-03-09T09:56:47.304Z,0.60
2024-03-09T09:57:47.348Z,0.60
2024-03-09T09:58:47.419Z,0.60
2024-03-09T09:59:47.412Z,0.59
2024-03-09T10:00:47.567Z,0.59
2024-03-09T10:01:47.579Z,0.59
2024-03-09T10:02:51.042Z,0.58
2024-03-09T10:03:47.581Z,0.58
2024-03-09T10:04:47.595Z,0.58
2024-03-09T10:05:47.558Z,0.58
2024-03-09T10:06:47.542Z,0.57
2024-03-09T10:07:47.550Z,0.57
2024-03-09T10:08:47.524Z,0.56
2024-03-09T10:09:47.530Z,0.56
2024-03-09T10:10:47.578Z,0.57
2024-03-09T10:11:47.631Z,0.56
2024-03-09T10:12:47.486Z,0.57
2024-03-09T10:13:47.490Z,0.56
2024-03-09T10:14:47.424Z,0.56
2024-03-09T10:15:47.438Z,0.56
2024-03-09T10:16:47.464Z,0.56
2024-03-09T10:17:47.464Z,0.56
2024-03-09T10:18:47.420Z,0.57
2024-03-09T10:19:47.498Z,0.57
2024-03-09T10:20:47.425Z,0.56
2024-03-09T10:21:47.397Z,0.56
2024-03-09T10:22:47.372Z,0.57
2024-03-09T10:23:47.358Z,0.56
2024-03-09T10:24:47.333Z,0.56
2024-03-09T10:25:47.392Z,0.56
2024-03-09T10:26:47.447Z,0.56
2024-03-09T10:27:47.486Z,0.56
2024-03-09T10:28:47.527Z,0.56
2024-03-09T10:29:47.557Z,0.56
2024-03-09T10:30:47.569Z,0.56
2024-03-09T10:31:47.649Z,0.56
2024-03-09T10:32:47.711Z,0.56
2024-03-09T10:33:47.741Z,0.56
2024-03-09T10:34:47.836Z,0.56
2024-03-09T10:35:48.205Z,0.56
2024-03-09T10:36:47.858Z,0.56
2024-03-09T10:37:47.870Z,0.56
2024-03-09T10:38:47.915Z,0.56
2024-03-09T10:39:47.974Z,0.56
2024-03-09T10:40:48.017Z,0.56
2024-03-09T10:41:47.993Z,0.56
2024-03-09T10:42:48.238Z,0.56
2024-03-09T10:43:48.025Z,0.57
2024-03-09T10:44:48.045Z,0.56
2024-03-09T10:45:48.083Z,0.56
2024-03-09T10:46:48.131Z,0.57
2024-03-09T10:47:48.158Z,0.57
2024-03-09T10:48:48.158Z,0.56
2024-03-09T10:49:48.209Z,0.57
2024-03-09T10:50:48.247Z,0.57
2024-03-09T10:51:48.210Z,0.58
2024-03-09T10:52:48.287Z,0.57
2024-03-09T10:53:48.311Z,0.57
2024-03-09T10:54:48.310Z,0.57
2024-03-09T10:55:48.412Z,0.58
2024-03-09T10:56:49.226Z,0.58
2024-03-09T10:57:48.369Z,0.57
2024-03-09T10:58:48.390Z,0.57
2024-03-09T10:59:48.434Z,0.57
2024-03-09T11:00:48.438Z,0.57
2024-03-09T11:01:48.551Z,0.57
2024-03-09T11:02:48.514Z,0.56
2024-03-09T11:03:48.527Z,0.56
2024-03-09T11:04:48.658Z,0.56
2024-03-09T11:05:48.578Z,0.56
2024-03-09T11:06:48.649Z,0.56
2024-03-09T11:07:48.674Z,0.55
2024-03-09T11:08:48.674Z,0.55
2024-03-09T11:09:52.111Z,0.55
2024-03-09T11:10:48.780Z,0.54
2024-03-09T11:11:48.828Z,0.54
2024-03-09T11:12:48.733Z,0.54
2024-03-09T11:13:48.817Z,0.54
2024-03-09T11:14:48.720Z,0.53
2024-03-09T11:15:50.355Z,0.53
2024-03-09T11:16:48.764Z,0.53
2024-03-09T11:17:48.728Z,0.53
2024-03-09T11:18:48.700Z,0.53
2024-03-09T11:19:48.687Z,0.52
2024-03-09T11:20:48.680Z,0.52
2024-03-09T11:21:51.934Z,0.52
2024-03-09T11:22:48.818Z,0.52
2024-03-09T11:23:48.710Z,0.52
2024-03-09T11:24:48.684Z,0.52
2024-03-09T11:25:48.770Z,0.52
2024-03-09T11:26:48.694Z,0.51
2024-03-09T11:27:51.147Z,0.51
2024-03-09T11:28:48.713Z,0.51
2024-03-09T11:29:48.662Z,0.51
2024-03-09T11:30:48.691Z,0.51
2024-03-09T11:31:48.677Z,0.51
2024-03-09T11:32:48.718Z,0.51
2024-03-09T11:33:51.812Z,0.50
2024-03-09T11:34:48.663Z,0.50
2024-03-09T11:35:48.680Z,0.51
2024-03-09T11:36:48.693Z,0.51
2024-03-09T11:37:48.673Z,0.50
2024-03-09T11:38:48.661Z,0.50
2024-03-09T11:39:50.819Z,0.50
2024-03-09T11:40:48.709Z,0.50
2024-03-09T11:41:48.674Z,0.50
2024-03-09T11:42:48.661Z,0.50
2024-03-09T11:43:48.677Z,0.50
2024-03-09T11:44:48.648Z,0.51
2024-03-09T11:45:48.654Z,0.50
2024-03-09T11:46:48.702Z,0.50
2024-03-09T11:47:48.685Z,0.50
2024-03-09T11:48:48.628Z,0.50
2024-03-09T11:49:48.637Z,0.50
2024-03-09T11:50:48.624Z,0.50
2024-03-09T11:51:51.275Z,0.51
2024-03-09T11:52:48.646Z,0.51
2024-03-09T11:53:48.567Z,0.51
2024-03-09T11:54:48.581Z,0.51
2024-03-09T11:55:48.625Z,0.51
2024-03-09T11:56:48.582Z,0.51
2024-03-09T11:57:51.447Z,0.50
2024-03-09T11:58:48.565Z,0.50
2024-03-09T11:59:48.564Z,0.50
2024-03-09T12:00:48.554Z,0.50
2024-03-09T12:01:48.574Z,0.51
2024-03-09T12:02:48.520Z,0.51
2024-03-09T12:03:48.544Z,0.50
2024-03-09T12:04:48.541Z,0.51
2024-03-09T12:05:48.528Z,0.51
2024-03-09T12:06:48.501Z,0.51
2024-03-09T12:07:48.532Z,0.50
2024-03-09T12:08:48.505Z,0.50
2024-03-09T12:09:48.512Z,0.50
2024-03-09T12:10:48.568Z,0.51
2024-03-09T12:11:48.773Z,0.50
2024-03-09T12:12:48.501Z,0.50
2024-03-09T12:13:48.528Z,0.51
2024-03-09T12:14:48.645Z,0.51
2024-03-09T12:15:48.502Z,0.50
2024-03-09T12:16:48.540Z,0.51
2024-03-09T12:17:48.543Z,0.50
2024-03-09T12:18:48.490Z,0.51
2024-03-09T12:19:48.529Z,0.50
2024-03-09T12:20:52.457Z,0.50
2024-03-09T12:21:49.556Z,0.50
2024-03-09T12:22:48.496Z,0.50
2024-03-09T12:23:48.462Z,0.50
2024-03-09T12:24:48.446Z,0.50
2024-03-09T12:25:48.519Z,0.50
2024-03-09T12:26:48.498Z,0.50
2024-03-09T12:27:48.470Z,0.50
2024-03-09T12:28:48.550Z,0.50
2024-03-09T12:29:48.483Z,0.50
2024-03-09T12:30:48.488Z,0.51
2024-03-09T12:31:48.554Z,0.51
2024-03-09T12:32:48.709Z,0.51
2024-03-09T12:33:48.763Z,0.51
2024-03-09T12:34:48.892Z,0.51
2024-03-09T12:35:48.905Z,0.51
2024-03-09T12:36:49.010Z,0.51
2024-03-09T12:37:49.090Z,0.52
2024-03-09T12:38:49.179Z,0.51
2024-03-09T12:39:49.289Z,0.51
2024-03-09T12:40:49.413Z,0.51
2024-03-09T12:41:49.445Z,0.51
2024-03-09T12:42:49.549Z,0.52
2024-03-09T12:43:49.671Z,0.52
2024-03-09T12:44:49.687Z,0.52
2024-03-09T12:45:49.780Z,0.52
2024-03-09T12:46:49.999Z,0.53
2024-03-09T12:47:49.910Z,0.52
2024-03-09T12:48:50.011Z,0.53
2024-03-09T12:49:50.070Z,0.53
2024-03-09T12:50:50.169Z,0.53
2024-03-09T12:51:50.608Z,0.53
2024-03-09T12:52:50.274Z,0.53
2024-03-09T12:53:50.273Z,0.53
2024-03-09T12:54:50.305Z,0.53
2024-03-09T12:55:50.336Z,0.53
2024-03-09T12:56:50.881Z,0.52
2024-03-09T12:57:50.362Z,0.53
2024-03-09T12:59:32.979Z,0.50
2024-03-09T13:00:32.990Z,0.50
2024-03-09T13:01:33.058Z,0.50
2024-03-09T13:02:33.038Z,0.50
2024-03-09T13:03:32.982Z,0.50
2024-03-09T13:04:33.040Z,0.50
2024-03-09T13:05:33.006Z,0.50
2024-03-09T13:06:33.029Z,0.51
2024-03-09T13:07:33.122Z,0.51
2024-03-09T13:08:33.086Z,0.51
2024-03-09T13:09:34.573Z,0.51
2024-03-09T13:10:33.118Z,0.51
2024-03-09T13:11:33.191Z,0.51
2024-03-09T13:12:33.107Z,0.52
2024-03-09T13:13:33.205Z,0.51
2024-03-09T13:14:33.179Z,0.52
2024-03-09T13:15:33.139Z,0.52
2024-03-09T13:16:33.300Z,0.52
2024-03-09T13:17:33.351Z,0.52
2024-03-09T13:18:33.175Z,0.53
2024-03-09T13:19:33.254Z,0.53
2024-03-09T13:20:33.271Z,0.53
2024-03-09T13:21:33.425Z,0.53
2024-03-09T13:22:33.534Z,0.53